Terminal Aerodrome Forecast
Issued by NWS Wilmington, OH

Home | Current Version | Previous Version | Text Only | Print | Product List | Glossary On
Versions: 1 2 3 4 5 6 7 8 9 10 11 12 13 14 15 16 17 18 19 20 21 22 23 24 25
448
FTUS41 KILN 240537
TAFCVG
TAF
KCVG 240537Z 2406/2512 21007KT P6SM VCSH OVC090
     FM240800 22009KT 4SM -SHRA BR OVC040
     FM241200 23010KT P6SM VCSH OVC022
     FM241500 24013G20KT P6SM VCSH OVC035
     FM242300 25011KT P6SM OVC040
     FM250500 25007KT P6SM OVC025=

USA.gov is the U.S. government's official web portal to all federal, state and local government web resources and services.